createdAt,value
2023-03-21T00:07:37.798Z,0.50
2023-03-21T00:13:06.473Z,0.63
2023-03-21T00:20:31.244Z,1.05
2023-03-21T00:34:42.934Z,0.70
2023-03-21T00:39:48.513Z,0.88
2023-03-21T00:40:48.740Z,1.05
2023-03-21T00:41:42.508Z,1.10
2023-03-21T00:42:43.716Z,0.80
2023-03-21T00:44:01.776Z,0.60
2023-03-21T00:45:38.338Z,0.60
2023-03-21T00:46:25.240Z,0.80
2023-03-21T00:47:28.971Z,0.70
2023-03-21T00:47:52.057Z,0.90
2023-03-21T00:48:15.392Z,0.75
2023-03-21T00:48:37.177Z,0.50
2023-03-21T00:49:00.602Z,0.55
2023-03-21T00:49:33.664Z,0.90
2023-03-21T00:49:57.798Z,0.80
2023-03-21T00:50:26.127Z,0.60
2023-03-21T00:59:24.384Z,1.00
2023-03-21T01:09:29.652Z,0.50
2023-03-21T01:38:14.395Z,0.75
2023-03-21T01:38:38.575Z,0.93
2023-03-21T01:39:00.679Z,0.65
2023-03-21T01:39:25.647Z,0.60
2023-03-21T01:39:49.845Z,0.80
2023-03-21T01:40:17.420Z,0.73
2023-03-21T01:40:45.514Z,0.73
2023-03-21T01:41:22.043Z,0.85
2023-03-21T01:41:46.374Z,0.70
2023-03-21T01:42:16.296Z,0.88
2023-03-21T01:42:40.289Z,0.70
2023-03-21T01:43:03.041Z,0.60
2023-03-21T01:43:28.953Z,0.50
2023-03-21T01:43:52.990Z,0.55
2023-03-21T01:44:19.242Z,0.90
2023-03-21T01:44:56.942Z,0.95
2023-03-21T01:45:54.693Z,0.80
2023-03-21T01:46:44.045Z,0.82
2023-03-21T01:47:30.713Z,0.80
2023-03-21T01:48:17.910Z,1.23
2023-03-21T01:48:45.012Z,0.93
2023-03-21T01:49:16.068Z,0.70
2023-03-21T01:49:46.427Z,0.90
2023-03-21T01:50:14.765Z,0.65
2023-03-21T01:50:46.642Z,0.70
2023-03-21T01:51:42.230Z,0.60
2023-03-21T01:52:13.140Z,1.17
2023-03-21T01:52:42.030Z,1.05
2023-03-21T01:53:19.859Z,1.15
2023-03-21T01:53:42.743Z,0.90
2023-03-21T01:54:11.349Z,0.95
2023-03-21T01:54:38.689Z,0.77
2023-03-21T01:55:04.825Z,1.02
2023-03-21T01:55:36.758Z,0.95
2023-03-21T01:56:12.316Z,0.73
2023-03-21T02:07:16.048Z,1.15
2023-03-21T02:07:44.074Z,0.75
2023-03-21T02:08:13.393Z,0.60
2023-03-21T02:08:39.929Z,1.10
2023-03-21T02:09:12.580Z,0.75
2023-03-21T02:09:37.168Z,0.73
2023-03-21T02:10:06.115Z,0.90
2023-03-21T02:10:29.647Z,0.85
2023-03-21T02:10:53.751Z,0.57
2023-03-21T02:11:27.631Z,1.20
2023-03-21T02:11:49.671Z,1.05
2023-03-21T02:12:16.164Z,0.85
2023-03-21T02:12:38.799Z,0.82
2023-03-21T02:13:09.434Z,0.73
2023-03-21T02:13:33.310Z,0.50
2023-03-21T02:14:06.360Z,0.57
2023-03-21T02:14:40.867Z,0.80
2023-03-21T02:15:27.209Z,1.08
2023-03-21T02:16:18.339Z,0.75
2023-03-21T02:16:50.570Z,0.77
2023-03-21T02:17:20.932Z,0.70
2023-03-21T02:17:50.918Z,0.70
2023-03-21T02:18:26.156Z,0.90
2023-03-21T02:18:56.451Z,1.02
2023-03-21T02:20:14.374Z,0.63
2023-03-21T02:21:16.864Z,0.82
2023-03-21T02:22:17.936Z,0.63
2023-03-21T02:23:25.529Z,0.80
2023-03-21T02:24:18.408Z,0.77
2023-03-21T02:25:06.141Z,0.68
2023-03-21T02:25:56.608Z,0.88
2023-03-21T02:26:52.464Z,0.90
2023-03-21T02:27:28.379Z,0.77
2023-03-21T02:28:01.452Z,0.95
2023-03-21T02:28:26.227Z,0.50
2023-03-21T02:28:56.513Z,0.70
2023-03-21T02:29:41.610Z,1.08
2023-03-21T02:30:28.808Z,1.15
2023-03-21T02:31:35.212Z,0.82
2023-03-21T02:32:20.400Z,0.77
2023-03-21T02:33:21.483Z,0.90
2023-03-21T02:34:13.015Z,1.10
2023-03-21T02:34:48.382Z,1.10
2023-03-21T02:35:39.089Z,0.82
2023-03-21T02:36:22.460Z,1.20
2023-03-21T02:36:57.429Z,0.63
2023-03-21T02:37:37.598Z,0.70
2023-03-21T02:38:05.199Z,0.70
2023-03-21T02:38:32.066Z,0.63
2023-03-21T02:39:04.098Z,0.63
2023-03-21T02:39:31.045Z,0.83
2023-03-21T02:40:07.823Z,0.98
2023-03-21T02:40:36.392Z,0.65
2023-03-21T02:41:13.260Z,0.70
2023-03-21T02:41:48.997Z,0.70
2023-03-21T02:42:22.154Z,0.52
2023-03-21T02:43:01.023Z,0.93
2023-03-21T02:43:38.239Z,1.00
2023-03-21T02:44:08.763Z,0.70
2023-03-21T02:44:45.334Z,1.00
2023-03-21T02:45:11.571Z,0.80
2023-03-21T02:45:40.856Z,0.50
2023-03-21T02:46:11.288Z,0.70
2023-03-21T02:46:45.635Z,0.90
2023-03-21T02:47:14.835Z,0.98
2023-03-21T02:47:43.939Z,0.88
2023-03-21T02:48:14.513Z,0.55
2023-03-21T02:48:50.833Z,1.27
2023-03-21T02:49:20.817Z,0.80
2023-03-21T02:49:51.178Z,0.70
2023-03-21T02:50:18.388Z,1.25
2023-03-21T02:50:44.579Z,1.13
2023-03-21T02:51:07.893Z,0.93
2023-03-21T02:51:32.446Z,1.10
2023-03-21T02:52:00.285Z,0.80
2023-03-21T02:52:39.077Z,1.00
2023-03-21T02:53:06.420Z,1.00
2023-03-21T02:53:34.137Z,0.85
2023-03-21T02:54:26.444Z,0.55
2023-03-21T02:54:48.877Z,1.05
2023-03-21T02:55:20.522Z,0.80
2023-03-21T02:55:49.478Z,0.93
2023-03-21T02:56:12.626Z,1.00
2023-03-21T02:56:40.582Z,0.70
2023-03-21T02:57:04.451Z,0.90
2023-03-21T02:57:33.727Z,0.95
2023-03-21T02:58:12.930Z,0.77
2023-03-21T02:58:42.647Z,0.68
2023-03-21T02:59:06.908Z,0.70
2023-03-21T02:59:32.802Z,0.75
2023-03-21T03:00:02.438Z,0.80
2023-03-21T03:00:33.925Z,0.90
2023-03-21T03:00:57.481Z,0.77
2023-03-21T03:01:29.104Z,0.95
2023-03-21T03:01:52.466Z,0.70
2023-03-21T03:02:16.451Z,0.70
2023-03-21T03:02:39.250Z,0.68
2023-03-21T03:03:10.006Z,0.70
2023-03-21T03:03:35.217Z,0.80
2023-03-21T03:03:59.535Z,0.82
2023-03-21T03:04:27.944Z,1.05
2023-03-21T03:04:51.717Z,0.90
2023-03-21T03:05:21.378Z,0.80
2023-03-21T03:05:49.173Z,0.80
2023-03-21T03:06:18.846Z,0.57
2023-03-21T03:06:58.187Z,0.80
2023-03-21T03:07:33.072Z,0.57
2023-03-21T03:08:13.034Z,0.60
2023-03-21T03:08:59.571Z,1.05
2023-03-21T03:09:35.273Z,0.75
2023-03-21T03:10:10.320Z,1.15
2023-03-21T03:10:50.665Z,0.80
2023-03-21T03:11:25.345Z,0.88
2023-03-21T03:11:54.692Z,0.85
2023-03-21T03:12:27.679Z,0.90
2023-03-21T03:13:04.949Z,0.55
2023-03-21T03:13:43.349Z,0.60
2023-03-21T03:14:52.759Z,0.80
2023-03-21T03:15:29.302Z,0.60
2023-03-21T03:16:03.115Z,0.98
2023-03-21T03:16:36.583Z,0.95
2023-03-21T03:17:10.614Z,1.02
2023-03-21T03:17:42.228Z,0.75
2023-03-21T03:18:12.909Z,0.73
2023-03-21T03:18:42.156Z,0.80
2023-03-21T03:19:08.944Z,0.90
2023-03-21T03:19:44.662Z,0.70
2023-03-21T03:20:22.304Z,0.60
2023-03-21T03:20:54.535Z,0.88
2023-03-21T03:21:21.424Z,0.75
2023-03-21T03:21:50.071Z,0.60
2023-03-21T03:22:18.372Z,0.80
2023-03-21T03:22:51.784Z,0.63
2023-03-21T03:23:21.120Z,0.60
2023-03-21T03:23:45.221Z,1.30
2023-03-21T03:24:12.814Z,0.52
2023-03-21T03:24:39.852Z,1.08
2023-03-21T03:25:19.674Z,1.15
2023-03-21T03:25:54.479Z,0.88
2023-03-21T03:26:21.643Z,0.93
2023-03-21T03:26:47.886Z,1.30
2023-03-21T03:27:15.631Z,0.90
2023-03-21T03:27:44.084Z,0.67
2023-03-21T03:28:08.410Z,0.90
2023-03-21T03:28:35.331Z,0.80
2023-03-21T03:29:03.070Z,1.08
2023-03-21T03:29:28.634Z,0.80
2023-03-21T03:29:55.023Z,0.60
2023-03-21T03:30:23.838Z,0.70
2023-03-21T03:31:07.087Z,0.90
2023-03-21T03:31:38.237Z,0.70
2023-03-21T03:32:06.358Z,0.60
2023-03-21T03:32:37.768Z,0.98
2023-03-21T03:33:02.550Z,0.98
2023-03-21T03:33:26.653Z,0.50
2023-03-21T03:33:55.584Z,0.80
2023-03-21T03:34:21.006Z,0.63
2023-03-21T03:34:50.316Z,0.70
2023-03-21T03:35:18.732Z,1.10
2023-03-21T03:35:43.632Z,0.98
2023-03-21T03:36:21.500Z,0.93
2023-03-21T03:36:58.183Z,0.70
2023-03-21T03:37:26.344Z,0.63
2023-03-21T03:37:54.074Z,0.70
2023-03-21T03:38:17.977Z,0.70
2023-03-21T03:38:42.741Z,0.98
2023-03-21T03:39:09.186Z,0.50
2023-03-21T03:39:37.436Z,0.70
2023-03-21T03:40:06.007Z,0.85
2023-03-21T03:45:31.815Z,0.80
2023-03-21T03:50:43.742Z,1.00
2023-03-21T03:51:13.778Z,0.68
2023-03-21T03:52:06.284Z,0.73
2023-03-21T03:52:50.039Z,0.90
2023-03-21T03:53:22.960Z,0.88
2023-03-21T03:53:53.462Z,0.82
2023-03-21T03:54:22.066Z,0.57
2023-03-21T03:54:48.131Z,0.88
2023-03-21T03:55:13.303Z,0.75
2023-03-21T03:55:38.759Z,0.88
2023-03-21T03:56:11.604Z,0.70
2023-03-21T03:56:37.416Z,0.50
2023-03-21T03:56:59.444Z,0.80
2023-03-21T03:57:21.681Z,0.68
2023-03-21T03:57:44.206Z,0.70
2023-03-21T03:58:19.676Z,0.85
2023-03-21T03:58:46.034Z,0.98
2023-03-21T03:59:11.381Z,1.17
2023-03-21T03:59:51.382Z,1.30
2023-03-21T04:00:23.976Z,0.70
2023-03-21T04:00:47.020Z,0.80
2023-03-21T04:01:09.114Z,1.00
2023-03-21T04:01:31.879Z,0.70
2023-03-21T04:01:53.984Z,0.80
2023-03-21T04:02:17.168Z,0.68
2023-03-21T04:02:39.647Z,0.65
2023-03-21T04:03:04.334Z,1.30
2023-03-21T04:03:26.269Z,0.85
2023-03-21T04:03:54.429Z,0.60
2023-03-21T04:04:23.142Z,0.70
2023-03-21T04:04:48.692Z,0.80
2023-03-21T04:05:10.976Z,0.70
2023-03-21T04:05:33.125Z,0.70
2023-03-21T04:05:57.870Z,0.80
2023-03-21T04:06:23.112Z,0.63
2023-03-21T04:06:51.538Z,0.52
2023-03-21T04:07:16.010Z,0.93
2023-03-21T04:07:37.999Z,0.65
2023-03-21T04:08:03.269Z,0.70
2023-03-21T04:08:33.494Z,0.65
2023-03-21T04:08:56.644Z,0.80
2023-03-21T04:09:23.514Z,1.02
2023-03-21T04:09:51.851Z,1.00
2023-03-21T04:10:15.287Z,0.80
2023-03-21T04:10:37.422Z,0.60
2023-03-21T04:10:59.233Z,0.60
2023-03-21T04:11:21.549Z,0.40
2023-03-21T04:18:52.244Z,0.60
2023-03-21T04:21:54.879Z,0.90
2023-03-21T04:22:17.425Z,0.40
2023-03-21T04:22:39.363Z,0.75
2023-03-21T04:23:01.240Z,0.82
2023-03-21T04:23:24.470Z,1.20
2023-03-21T04:23:49.028Z,1.10
2023-03-21T04:24:13.964Z,0.80
2023-03-21T04:24:39.729Z,0.90
2023-03-21T04:25:05.282Z,1.20
2023-03-21T04:25:33.710Z,1.15
2023-03-21T04:25:57.542Z,0.85
2023-03-21T04:26:39.312Z,0.80
2023-03-21T04:27:23.353Z,0.82
2023-03-21T04:28:04.263Z,0.80
2023-03-21T04:28:51.390Z,0.60
2023-03-21T04:29:20.426Z,0.70
2023-03-21T04:30:00.743Z,0.97
2023-03-21T04:30:40.942Z,1.13
2023-03-21T04:31:22.617Z,1.20
2023-03-21T04:31:49.904Z,0.88
2023-03-21T04:32:19.925Z,0.82
2023-03-21T04:32:55.263Z,0.77
2023-03-21T04:33:17.186Z,0.82
2023-03-21T04:33:47.850Z,0.90
2023-03-21T04:34:12.639Z,1.85
2023-03-21T04:34:40.551Z,0.93
2023-03-21T04:35:03.006Z,0.65
2023-03-21T04:35:25.031Z,0.70
2023-03-21T04:35:47.514Z,0.70
2023-03-21T04:36:27.298Z,0.85
2023-03-21T04:36:54.219Z,0.77
2023-03-21T04:37:16.754Z,0.90
2023-03-21T04:37:39.230Z,1.15
2023-03-21T04:38:03.568Z,1.20
2023-03-21T04:38:30.695Z,1.00
2023-03-21T04:39:00.794Z,1.15
2023-03-21T04:39:24.868Z,0.90
2023-03-21T04:39:48.405Z,4.05
2023-03-21T04:40:11.472Z,5.90
2023-03-21T04:40:33.745Z,5.32
2023-03-21T04:40:55.684Z,4.07
2023-03-21T04:41:18.251Z,4.15
2023-03-21T04:41:41.634Z,3.05
2023-03-21T04:42:03.346Z,3.08
2023-03-21T04:42:25.081Z,2.67
2023-03-21T04:53:24.195Z,0.77
2023-03-21T04:53:53.453Z,1.20
2023-03-21T04:54:16.688Z,0.82
2023-03-21T04:54:40.148Z,0.90
2023-03-21T04:55:05.235Z,0.70
2023-03-21T04:55:29.743Z,1.10
2023-03-21T04:55:54.870Z,0.68
2023-03-21T04:56:17.253Z,0.60
2023-03-21T04:56:39.927Z,0.70
2023-03-21T04:57:02.586Z,0.90
2023-03-21T04:57:24.387Z,0.60
2023-03-21T04:57:46.277Z,0.50
2023-03-21T04:58:08.760Z,0.65
2023-03-21T04:58:30.506Z,0.90
2023-03-21T04:58:53.203Z,1.05
2023-03-21T04:59:16.565Z,0.70
2023-03-21T04:59:38.453Z,0.82
2023-03-21T05:00:00.576Z,0.65
2023-03-21T05:00:25.925Z,0.73
2023-03-21T05:00:47.803Z,1.00
2023-03-21T05:01:09.829Z,0.90
2023-03-21T05:01:31.642Z,0.68
2023-03-21T05:01:53.656Z,0.55
2023-03-21T05:02:16.851Z,1.00
2023-03-21T05:02:38.823Z,1.40
2023-03-21T05:03:01.196Z,1.10
2023-03-21T05:03:23.108Z,0.98
2023-03-21T05:03:44.773Z,1.10
2023-03-21T05:04:08.129Z,1.05
2023-03-21T05:04:31.015Z,1.25
2023-03-21T05:04:55.619Z,1.05
2023-03-21T05:05:18.800Z,0.75
2023-03-21T05:05:41.534Z,1.10
2023-03-21T05:06:03.263Z,0.82
2023-03-21T05:06:26.031Z,0.82
2023-03-21T05:06:47.618Z,0.90
2023-03-21T05:07:12.415Z,1.02
2023-03-21T05:07:34.276Z,0.93
2023-03-21T05:07:57.118Z,1.08
2023-03-21T05:08:19.051Z,0.95
2023-03-21T05:08:41.719Z,0.80
2023-03-21T05:09:07.148Z,1.20
2023-03-21T05:09:31.539Z,0.90
2023-03-21T05:09:53.418Z,0.77
2023-03-21T05:10:16.388Z,0.80
2023-03-21T05:10:38.537Z,0.80
2023-03-21T05:11:00.312Z,1.10
2023-03-21T05:11:23.127Z,1.17
2023-03-21T05:11:45.516Z,0.85
2023-03-21T05:12:10.318Z,0.98
2023-03-21T05:12:32.185Z,0.82
2023-03-21T05:12:54.743Z,1.13
2023-03-21T05:13:18.147Z,0.98
2023-03-21T05:13:41.400Z,0.55
2023-03-21T05:14:04.598Z,0.73
2023-03-21T05:14:27.135Z,0.55
2023-03-21T05:14:49.753Z,0.57
2023-03-21T05:15:11.918Z,0.98
2023-03-21T05:15:35.639Z,0.80
2023-03-21T05:15:57.907Z,0.80
2023-03-21T05:16:19.682Z,0.60
2023-03-21T05:16:45.067Z,0.90
2023-03-21T05:17:08.557Z,0.68
2023-03-21T05:17:31.289Z,0.80
2023-03-21T05:17:58.020Z,0.75
2023-03-21T05:18:25.039Z,1.00
2023-03-21T05:19:08.055Z,0.80
2023-03-21T05:19:35.343Z,0.60
2023-03-21T05:19:58.785Z,0.43
2023-03-21T05:20:20.566Z,0.63
2023-03-21T05:20:43.914Z,0.70
2023-03-21T05:21:07.944Z,0.50
2023-03-21T05:21:34.197Z,0.80
2023-03-21T05:21:56.845Z,0.88
2023-03-21T05:22:24.346Z,0.80
2023-03-21T05:22:51.341Z,1.25
2023-03-21T05:23:13.686Z,1.23
2023-03-21T05:23:38.222Z,1.15
2023-03-21T05:24:03.509Z,1.00
2023-03-21T05:24:26.355Z,1.70
2023-03-21T05:24:51.224Z,3.45
2023-03-21T05:25:36.120Z,4.45
2023-03-21T05:26:05.742Z,3.63
2023-03-21T05:26:34.024Z,5.00
2023-03-21T05:27:08.651Z,3.90
2023-03-21T05:27:36.898Z,3.30
2023-03-21T05:28:06.903Z,1.80
2023-03-21T05:28:31.589Z,3.58
2023-03-21T05:28:55.061Z,2.58
2023-03-21T05:29:18.319Z,2.55
2023-03-21T05:29:46.827Z,2.28
2023-03-21T05:30:11.745Z,1.95
2023-03-21T05:30:34.489Z,1.05
2023-03-21T05:30:57.575Z,0.80
2023-03-21T05:31:20.848Z,1.00
2023-03-21T05:31:46.720Z,0.90
2023-03-21T05:32:11.424Z,0.93
2023-03-21T05:32:34.628Z,1.30
2023-03-21T05:32:58.139Z,1.08
2023-03-21T05:33:20.345Z,1.00
2023-03-21T05:33:42.568Z,0.65
2023-03-21T05:34:05.300Z,0.70
2023-03-21T05:34:30.862Z,0.93
2023-03-21T05:34:52.855Z,1.08
2023-03-21T05:35:17.348Z,0.70
2023-03-21T05:35:40.066Z,0.90
2023-03-21T05:36:06.302Z,0.88
2023-03-21T05:36:29.370Z,1.20
2023-03-21T05:36:52.010Z,0.80
2023-03-21T05:37:16.248Z,0.85
2023-03-21T05:37:44.794Z,0.80
2023-03-21T05:38:06.866Z,0.90
2023-03-21T05:38:39.705Z,0.80
2023-03-21T05:39:02.569Z,0.60
2023-03-21T05:39:27.629Z,1.20
2023-03-21T05:39:58.656Z,0.57
2023-03-21T05:40:27.464Z,0.95
2023-03-21T05:40:55.414Z,1.20
2023-03-21T05:41:19.395Z,1.15
2023-03-21T05:41:47.073Z,1.00
2023-03-21T05:42:09.915Z,0.75
2023-03-21T05:42:32.635Z,0.70
2023-03-21T05:42:55.018Z,0.60
2023-03-21T05:43:18.492Z,0.88
2023-03-21T05:43:42.917Z,1.00
2023-03-21T05:44:05.640Z,1.10
2023-03-21T05:44:27.684Z,1.13
2023-03-21T05:44:49.787Z,1.20
2023-03-21T05:45:16.107Z,0.85
2023-03-21T05:45:40.293Z,1.02
2023-03-21T05:46:02.151Z,1.15
2023-03-21T05:46:25.408Z,0.70
2023-03-21T05:46:48.743Z,0.70
2023-03-21T05:47:14.446Z,1.02
2023-03-21T05:47:39.919Z,1.83
2023-03-21T05:48:03.557Z,1.58
2023-03-21T05:48:31.004Z,0.73
2023-03-21T05:49:07.628Z,0.57
2023-03-21T05:49:30.909Z,0.70
2023-03-21T05:49:56.854Z,0.75
2023-03-21T05:50:19.731Z,0.93
2023-03-21T05:50:50.760Z,1.05
2023-03-21T05:51:18.238Z,0.90
2023-03-21T05:51:41.294Z,0.68
2023-03-21T05:52:03.417Z,0.93
2023-03-21T05:52:25.443Z,0.93
2023-03-21T05:52:48.373Z,0.95
2023-03-21T05:53:10.627Z,0.80
2023-03-21T05:53:32.573Z,0.95
2023-03-21T05:53:54.310Z,0.70
2023-03-21T05:54:18.116Z,1.00
2023-03-21T05:54:43.153Z,0.85
2023-03-21T05:55:07.517Z,1.17
2023-03-21T05:55:30.340Z,0.98
2023-03-21T05:55:53.253Z,1.10
2023-03-21T05:56:33.019Z,0.90
2023-03-21T05:57:01.910Z,1.08
2023-03-21T05:57:48.170Z,1.08
2023-03-21T05:58:18.090Z,0.88
2023-03-21T05:58:45.473Z,1.10
2023-03-21T05:59:08.080Z,1.63
2023-03-21T05:59:35.520Z,3.55
2023-03-21T05:59:57.256Z,2.08
2023-03-21T06:00:21.999Z,2.25
2023-03-21T06:01:05.071Z,2.50
2023-03-21T06:01:29.666Z,3.28
2023-03-21T06:02:03.071Z,2.65
2023-03-21T06:02:24.867Z,1.67
2023-03-21T06:02:46.947Z,1.65
2023-03-21T06:03:34.891Z,2.25
2023-03-21T06:04:02.828Z,2.08
2023-03-21T06:04:25.653Z,2.95
2023-03-21T06:04:48.653Z,4.28
2023-03-21T06:05:14.436Z,4.72
2023-03-21T06:05:37.167Z,2.45
2023-03-21T06:06:05.171Z,1.88
2023-03-21T06:06:34.718Z,1.42
2023-03-21T06:06:56.945Z,1.02
2023-03-21T06:07:21.889Z,0.85
2023-03-21T06:07:47.657Z,1.20
2023-03-21T06:08:09.461Z,0.68
2023-03-21T06:08:32.314Z,0.85
2023-03-21T06:08:53.988Z,1.05
2023-03-21T06:09:16.742Z,1.40
2023-03-21T06:09:45.914Z,1.00
2023-03-21T06:10:11.748Z,0.98
2023-03-21T06:10:36.434Z,0.95
2023-03-21T06:11:00.350Z,0.82
2023-03-21T06:11:28.078Z,1.00
2023-03-21T06:12:11.460Z,1.00
2023-03-21T06:13:01.243Z,0.88
2023-03-21T06:13:27.313Z,1.05
2023-03-21T06:13:49.177Z,1.00
2023-03-21T06:14:10.921Z,0.73
2023-03-21T06:14:34.545Z,0.68
2023-03-21T06:15:15.390Z,0.80
2023-03-21T06:15:48.335Z,0.77
2023-03-21T06:16:14.940Z,1.23
2023-03-21T06:16:36.846Z,1.00
2023-03-21T06:16:58.798Z,1.15
2023-03-21T06:17:22.602Z,1.10
2023-03-21T06:17:51.944Z,1.00
2023-03-21T06:18:13.796Z,0.88
2023-03-21T06:18:45.254Z,1.23
2023-03-21T06:19:26.561Z,1.20
2023-03-21T06:19:58.583Z,0.75
2023-03-21T06:20:26.799Z,1.13
2023-03-21T06:20:57.766Z,0.63
2023-03-21T06:21:22.027Z,1.00
2023-03-21T06:21:45.296Z,0.88
2023-03-21T06:22:07.669Z,0.88
2023-03-21T06:22:34.154Z,0.80
2023-03-21T06:22:57.460Z,1.08
2023-03-21T06:23:19.087Z,1.23
2023-03-21T06:23:41.320Z,0.90
2023-03-21T06:24:04.474Z,0.60
2023-03-21T06:24:26.602Z,0.75
2023-03-21T06:24:49.123Z,0.70
2023-03-21T06:25:16.868Z,1.10
2023-03-21T06:25:40.345Z,0.77
2023-03-21T06:26:02.372Z,0.60
2023-03-21T06:26:25.217Z,0.80
2023-03-21T06:26:49.481Z,0.77
2023-03-21T06:27:11.496Z,1.10
2023-03-21T06:27:45.030Z,0.70
2023-03-21T06:28:09.765Z,0.95
2023-03-21T06:28:36.984Z,0.98
2023-03-21T06:28:58.916Z,0.70
2023-03-21T06:29:22.122Z,0.90
2023-03-21T06:29:45.971Z,1.00
2023-03-21T06:30:11.052Z,0.90
2023-03-21T06:30:41.819Z,0.95
2023-03-21T06:31:11.723Z,0.82
2023-03-21T06:31:34.070Z,0.95
2023-03-21T06:31:59.647Z,0.90
2023-03-21T06:32:22.098Z,0.70
2023-03-21T06:32:49.796Z,1.05
2023-03-21T06:33:17.479Z,1.00
2023-03-21T06:33:39.958Z,1.33
2023-03-21T06:34:02.128Z,1.00
2023-03-21T06:34:25.328Z,1.13
2023-03-21T06:34:47.559Z,1.00
2023-03-21T06:35:10.729Z,0.80
2023-03-21T06:35:33.537Z,0.90
2023-03-21T06:35:59.136Z,1.42
2023-03-21T06:36:21.910Z,0.93
2023-03-21T06:36:44.669Z,0.85
2023-03-21T06:37:08.332Z,0.60
2023-03-21T06:37:32.462Z,0.60
2023-03-21T06:37:54.788Z,0.90
2023-03-21T06:38:16.606Z,0.85
2023-03-21T06:38:39.305Z,1.00
2023-03-21T06:39:01.079Z,1.27
2023-03-21T06:39:23.171Z,1.00
2023-03-21T06:39:47.181Z,0.85
2023-03-21T06:40:10.576Z,0.80
2023-03-21T06:40:35.954Z,1.00
2023-03-21T06:40:59.153Z,0.80
2023-03-21T06:41:24.365Z,0.70
2023-03-21T06:41:53.538Z,1.23
2023-03-21T06:42:17.152Z,0.88
2023-03-21T06:42:39.159Z,0.90
2023-03-21T06:43:04.965Z,1.00
2023-03-21T06:43:28.042Z,0.60
2023-03-21T06:43:50.871Z,0.80
2023-03-21T06:45:34.828Z,1.58
2023-03-21T06:46:58.513Z,0.90
2023-03-21T06:50:21.159Z,0.75
2023-03-21T06:50:59.225Z,0.75
2023-03-21T06:51:46.866Z,0.57
2023-03-21T06:52:34.287Z,0.82
2023-03-21T06:53:16.785Z,1.10
2023-03-21T06:54:26.172Z,0.90
2023-03-21T06:55:08.941Z,1.02
2023-03-21T06:55:38.090Z,0.85
2023-03-21T06:56:06.459Z,0.60
2023-03-21T06:56:31.793Z,1.10
2023-03-21T06:57:07.388Z,1.20
2023-03-21T06:58:37.348Z,0.98
2023-03-21T06:59:48.473Z,1.02
2023-03-21T07:00:42.832Z,0.80
2023-03-21T07:02:49.402Z,1.00
2023-03-21T07:03:33.788Z,1.00
2023-03-21T07:04:07.264Z,1.35
2023-03-21T07:04:47.273Z,0.88
2023-03-21T07:05:20.363Z,1.02
2023-03-21T07:05:43.875Z,1.23
2023-03-21T07:06:13.675Z,0.93
2023-03-21T07:06:37.438Z,0.90
2023-03-21T07:07:08.862Z,1.08
2023-03-21T07:07:39.733Z,1.05
2023-03-21T07:08:11.461Z,1.10
2023-03-21T07:08:38.264Z,1.63
2023-03-21T07:09:13.220Z,1.40
2023-03-21T07:09:37.607Z,0.95
2023-03-21T07:10:12.729Z,1.70
2023-03-21T07:10:58.094Z,0.95
2023-03-21T07:11:23.308Z,1.17
2023-03-21T07:11:55.188Z,1.88
2023-03-21T07:12:22.523Z,0.90
2023-03-21T07:13:05.593Z,1.10
2023-03-21T07:14:07.773Z,1.23
2023-03-21T07:14:41.093Z,0.80
2023-03-21T07:15:10.189Z,1.20
2023-03-21T07:15:45.039Z,1.35
2023-03-21T07:16:24.661Z,0.90
2023-03-21T07:17:31.678Z,1.20
2023-03-21T07:18:19.433Z,0.75
2023-03-21T07:18:42.515Z,1.00
2023-03-21T07:19:04.177Z,0.98
2023-03-21T07:19:26.467Z,1.10
2023-03-21T07:19:49.112Z,0.90
2023-03-21T07:20:14.084Z,1.10
2023-03-21T07:20:38.048Z,1.17
2023-03-21T07:21:00.633Z,1.30
2023-03-21T07:21:22.865Z,1.08
2023-03-21T07:21:44.534Z,1.00
2023-03-21T07:22:06.329Z,1.30
2023-03-21T07:22:29.114Z,0.82
2023-03-21T07:22:50.684Z,1.25
2023-03-21T07:23:12.531Z,0.80
2023-03-21T07:23:34.663Z,0.90
2023-03-21T07:23:57.422Z,0.75
2023-03-21T07:24:19.089Z,0.68
2023-03-21T07:24:40.795Z,0.80
2023-03-21T07:25:05.521Z,0.80
2023-03-21T07:25:34.551Z,1.00
2023-03-21T07:25:57.810Z,0.98
2023-03-21T07:26:19.600Z,1.10
2023-03-21T07:26:42.970Z,1.17
2023-03-21T07:27:04.617Z,0.90
2023-03-21T07:27:26.732Z,0.95
2023-03-21T07:27:48.447Z,0.63
2023-03-21T07:28:11.401Z,0.95
2023-03-21T07:28:33.626Z,1.40
2023-03-21T07:28:56.064Z,0.52
2023-03-21T07:29:21.319Z,0.70
2023-03-21T07:29:44.675Z,0.80
2023-03-21T07:30:07.714Z,1.15
2023-03-21T07:30:29.384Z,1.17
2023-03-21T07:30:55.812Z,0.70
2023-03-21T07:31:19.384Z,1.02
2023-03-21T07:31:43.447Z,0.90
2023-03-21T07:32:06.478Z,1.08
2023-03-21T07:32:29.870Z,1.25
2023-03-21T07:32:53.361Z,0.80
2023-03-21T07:33:15.359Z,0.90
2023-03-21T07:33:37.052Z,0.60
2023-03-21T07:33:59.696Z,0.63
2023-03-21T07:34:21.792Z,0.90
2023-03-21T07:34:43.391Z,0.85
2023-03-21T07:35:06.724Z,1.02
2023-03-21T07:35:29.705Z,0.80
2023-03-21T07:35:51.895Z,1.30
2023-03-21T07:36:15.870Z,1.10
2023-03-21T07:36:37.788Z,0.88
2023-03-21T07:37:02.955Z,1.02
2023-03-21T07:37:25.827Z,1.13
2023-03-21T07:37:47.525Z,0.70
2023-03-21T07:38:13.822Z,0.68
2023-03-21T07:38:36.382Z,0.90
2023-03-21T07:38:58.298Z,0.93
2023-03-21T07:39:21.244Z,1.00
2023-03-21T07:39:43.172Z,0.77
2023-03-21T07:40:07.584Z,0.70
2023-03-21T07:40:29.294Z,0.82
2023-03-21T07:40:52.302Z,0.65
2023-03-21T07:41:37.974Z,0.90
2023-03-21T07:42:17.646Z,0.73
2023-03-21T07:42:41.106Z,1.20
2023-03-21T07:43:04.539Z,0.90
2023-03-21T07:43:30.134Z,1.30
2023-03-21T07:43:53.676Z,1.00
2023-03-21T07:44:15.684Z,0.70
2023-03-21T07:44:38.357Z,0.98
2023-03-21T07:45:00.008Z,0.88
2023-03-21T07:45:27.643Z,1.05
2023-03-21T07:45:50.252Z,1.00
2023-03-21T07:46:12.224Z,1.00
2023-03-21T07:46:33.898Z,0.70
2023-03-21T07:46:55.981Z,0.82
2023-03-21T07:47:19.319Z,0.68
2023-03-21T07:47:44.498Z,0.90
2023-03-21T07:48:06.464Z,1.00
2023-03-21T07:48:30.524Z,1.17
2023-03-21T07:48:52.214Z,2.30
2023-03-21T07:49:13.856Z,5.63
2023-03-21T07:49:36.921Z,5.72
2023-03-21T07:50:25.500Z,2.72
2023-03-21T07:50:55.896Z,2.08
2023-03-21T07:51:26.258Z,1.55
2023-03-21T07:52:47.122Z,1.80
2023-03-21T07:53:08.923Z,1.10
2023-03-21T07:53:31.743Z,1.00
2023-03-21T07:53:54.791Z,0.90
2023-03-21T07:54:19.228Z,1.00
2023-03-21T07:54:41.111Z,1.20
2023-03-21T07:55:03.776Z,1.02
2023-03-21T07:55:25.397Z,0.88
2023-03-21T07:55:50.413Z,0.93
2023-03-21T07:56:13.041Z,1.05
2023-03-21T07:56:36.485Z,1.20
2023-03-21T07:56:58.493Z,1.25
2023-03-21T07:57:20.384Z,1.20
2023-03-21T07:57:43.004Z,1.52
2023-03-21T07:58:05.381Z,0.90
2023-03-21T07:58:27.148Z,0.70
2023-03-21T07:58:48.818Z,1.15
2023-03-21T07:59:14.005Z,1.33
2023-03-21T07:59:36.388Z,1.25
2023-03-21T07:59:58.242Z,0.55
2023-03-21T08:00:23.205Z,0.90
2023-03-21T08:00:46.465Z,1.30
2023-03-21T08:01:08.102Z,1.33
2023-03-21T08:01:29.795Z,1.10
2023-03-21T08:01:51.719Z,0.80
2023-03-21T08:02:16.127Z,0.90
2023-03-21T08:02:37.910Z,0.82
2023-03-21T08:03:00.113Z,1.00
2023-03-21T08:03:23.945Z,1.10
2023-03-21T08:03:46.231Z,0.80
2023-03-21T08:04:08.737Z,0.82
2023-03-21T08:04:32.275Z,1.08
2023-03-21T08:04:53.972Z,1.00
2023-03-21T08:05:15.560Z,0.43
2023-03-21T08:05:39.675Z,0.73
2023-03-21T08:06:01.839Z,0.93
2023-03-21T08:06:23.540Z,1.00
2023-03-21T08:06:46.113Z,1.17
2023-03-21T08:07:09.146Z,1.00
2023-03-21T08:07:30.751Z,0.82
2023-03-21T08:07:53.743Z,0.80
2023-03-21T08:08:15.577Z,0.70
2023-03-21T08:08:37.357Z,0.80
2023-03-21T08:08:59.019Z,0.93
2023-03-21T08:09:22.979Z,1.05
2023-03-21T08:09:44.861Z,0.80
2023-03-21T08:10:07.974Z,0.90
2023-03-21T08:10:31.146Z,1.05
2023-03-21T08:10:52.805Z,0.88
2023-03-21T08:11:14.597Z,0.82
2023-03-21T08:11:37.651Z,0.80
2023-03-21T08:12:00.254Z,0.82
2023-03-21T08:12:24.450Z,1.13
2023-03-21T08:12:46.476Z,1.05
2023-03-21T08:13:08.028Z,1.02
2023-03-21T08:13:30.626Z,1.05
2023-03-21T08:13:52.295Z,0.93
2023-03-21T08:14:13.952Z,1.10
2023-03-21T08:14:36.971Z,1.42
2023-03-21T08:15:01.039Z,1.17
2023-03-21T08:15:23.192Z,0.85
2023-03-21T08:15:46.193Z,0.90
2023-03-21T08:16:08.800Z,0.80
2023-03-21T08:16:30.679Z,0.85
2023-03-21T08:16:52.879Z,0.98
2023-03-21T08:17:15.758Z,0.73
2023-03-21T08:17:38.002Z,1.08
2023-03-21T08:18:00.313Z,0.60
2023-03-21T08:18:23.021Z,0.90
2023-03-21T08:18:44.807Z,0.98
2023-03-21T08:19:06.512Z,1.20
2023-03-21T08:19:28.169Z,1.10
2023-03-21T08:19:50.885Z,1.25
2023-03-21T08:20:15.020Z,1.10
2023-03-21T08:20:37.336Z,0.80
2023-03-21T08:21:00.394Z,0.75
2023-03-21T08:21:21.989Z,0.90
2023-03-21T08:21:43.756Z,0.68
2023-03-21T08:22:05.504Z,0.82
2023-03-21T08:22:28.519Z,1.08
2023-03-21T08:22:53.869Z,0.90
2023-03-21T08:23:15.568Z,0.95
2023-03-21T08:23:37.178Z,0.98
2023-03-21T08:23:59.779Z,1.50
2023-03-21T08:24:21.471Z,1.17
2023-03-21T08:24:43.229Z,1.40
2023-03-21T08:25:06.839Z,1.38
2023-03-21T08:25:30.748Z,1.25
2023-03-21T08:25:53.709Z,1.40